Terminal Aerodrome Forecast
Issued by NWS

Home | Current Version | Previous Version | Text Only | Print | Product List | Glossary On
Versions: 1 2 3 4 5 6 7 8 9 10 11 12 13 14 15
247
FTUS46 KMTR 291720
TAFSNS
TAF
KSNS 291720Z 2918/3018 17005KT P6SM FEW200
     FM291900 29008KT P6SM SCT200
     FM300000 28013G20KT P6SM SCT200
     FM300300 28007KT P6SM FEW030 SCT150
     FM300900 29005KT P6SM BKN008
     FM301600 29006KT P6SM SCT015 SCT200=

USA.gov is the U.S. government's official web portal to all federal, state and local government web resources and services.